createdAt,value
2023-04-18T00:01:44.418Z,102194.22
2023-04-18T00:04:29.440Z,102190.41
2023-04-18T00:07:15.343Z,102192.44
2023-04-18T00:10:01.869Z,102195.81
2023-04-18T00:12:47.603Z,102196.88
2023-04-18T00:15:34.410Z,102192.47
2023-04-18T00:18:20.370Z,102191.41
2023-04-18T00:21:08.549Z,102190.00
2023-04-18T00:23:53.399Z,102194.31
2023-04-18T00:26:38.332Z,102198.94
2023-04-18T00:29:23.196Z,102195.00
2023-04-18T00:32:08.408Z,102199.91
2023-04-18T00:34:53.163Z,102187.84
2023-04-18T00:37:38.015Z,102194.13
2023-04-18T00:40:22.802Z,102200.25
2023-04-18T00:43:08.887Z,102209.66
2023-04-18T00:45:55.075Z,102194.44
2023-04-18T00:48:40.181Z,102202.81
2023-04-18T00:51:26.536Z,102191.25
2023-04-18T00:54:13.447Z,102201.81
2023-04-18T00:56:59.021Z,102188.66
2023-04-18T00:59:46.153Z,102197.06
2023-04-18T01:02:31.301Z,102196.38
2023-04-18T01:05:18.039Z,102192.63
2023-04-18T01:08:03.642Z,102182.28
2023-04-18T01:10:49.299Z,102185.25
2023-04-18T01:13:34.506Z,102188.38
2023-04-18T01:16:19.738Z,102185.75
2023-04-18T01:19:05.668Z,102186.38
2023-04-18T01:21:53.343Z,102190.78
2023-04-18T01:24:37.965Z,102188.28
2023-04-18T01:27:23.420Z,102184.59
2023-04-18T01:30:09.160Z,102186.97
2023-04-18T01:32:54.767Z,102180.97
2023-04-18T01:35:39.737Z,102189.44
2023-04-18T01:38:24.546Z,102189.66
2023-04-18T01:41:09.528Z,102190.34
2023-04-18T01:43:54.565Z,102183.25
2023-04-18T01:46:40.710Z,102185.75
2023-04-18T01:49:25.853Z,102185.09
2023-04-18T01:52:14.004Z,102180.69
2023-04-18T01:54:59.219Z,102179.81
2023-04-18T01:57:44.451Z,102177.94
2023-04-18T02:00:29.225Z,102173.66
2023-04-18T02:03:14.550Z,102181.53
2023-04-18T02:06:02.682Z,102176.88
2023-04-18T02:08:47.923Z,102180.56
2023-04-18T02:11:32.702Z,102171.94
2023-04-18T02:14:17.469Z,102174.69
2023-04-18T02:17:02.502Z,102183.50
2023-04-18T02:19:48.416Z,102180.75
2023-04-18T02:22:33.512Z,102175.59
2023-04-18T02:25:18.597Z,102179.94
2023-04-18T02:28:03.824Z,102177.06
2023-04-18T02:30:48.792Z,102175.47
2023-04-18T02:33:34.405Z,102177.38
2023-04-18T02:36:19.279Z,102183.38
2023-04-18T02:39:04.596Z,102172.22
2023-04-18T02:41:49.520Z,102177.47
2023-04-18T02:44:34.358Z,102181.84
2023-04-18T02:47:19.301Z,102180.84
2023-04-18T02:50:04.999Z,102180.66
2023-04-18T02:52:49.927Z,102181.81
2023-04-18T02:55:34.928Z,102186.19
2023-04-18T02:58:19.728Z,102186.13
2023-04-18T03:01:05.011Z,102188.69
2023-04-18T03:03:49.882Z,102185.84
2023-04-18T03:06:35.097Z,102184.13
2023-04-18T03:09:19.949Z,102190.44
2023-04-18T03:12:05.045Z,102192.91
2023-04-18T03:14:50.163Z,102186.66
2023-04-18T03:17:37.269Z,102190.13
2023-04-18T03:20:22.576Z,102185.09
2023-04-18T03:23:08.113Z,102185.50
2023-04-18T03:25:53.216Z,102189.22
2023-04-18T03:28:38.611Z,102184.94
2023-04-18T03:31:23.534Z,102188.41
2023-04-18T03:34:08.955Z,102190.09
2023-04-18T03:36:54.098Z,102187.66
2023-04-18T03:39:39.591Z,102191.81
2023-04-18T03:42:24.376Z,102189.09
2023-04-18T03:45:09.486Z,102194.22
2023-04-18T03:47:54.414Z,102197.09
2023-04-18T03:50:39.659Z,102192.72
2023-04-18T03:53:24.556Z,102196.91
2023-04-18T03:56:09.794Z,102187.50
2023-04-18T03:58:54.975Z,102205.72
2023-04-18T04:01:40.126Z,102207.47
2023-04-18T04:04:24.979Z,102206.69
2023-04-18T04:07:12.254Z,102202.25
2023-04-18T04:09:58.518Z,102196.84
2023-04-18T04:12:44.025Z,102203.84
2023-04-18T04:15:28.815Z,102208.31
2023-04-18T04:18:14.024Z,102212.22
2023-04-18T04:20:59.806Z,102215.91
2023-04-18T04:23:46.484Z,102219.47
2023-04-18T04:26:31.621Z,102221.03
2023-04-18T04:29:17.603Z,102222.72
2023-04-18T04:32:06.467Z,102222.81
2023-04-18T04:34:51.729Z,102226.34
2023-04-18T04:37:37.073Z,102231.34
2023-04-18T04:40:23.483Z,102234.78
2023-04-18T04:43:12.492Z,102236.81
2023-04-18T04:45:57.801Z,102237.38
2023-04-18T04:48:43.143Z,102243.28
2023-04-18T04:51:28.399Z,102248.41
2023-04-18T04:54:14.253Z,102243.66
2023-04-18T04:56:59.228Z,102240.63
2023-04-18T04:59:44.432Z,102251.28
2023-04-18T05:02:29.995Z,102262.44
2023-04-18T05:05:16.163Z,102257.06
2023-04-18T05:08:00.947Z,102267.44
2023-04-18T05:10:45.976Z,102263.94
2023-04-18T05:13:31.128Z,102262.63
2023-04-18T05:16:16.716Z,102267.66
2023-04-18T05:19:01.885Z,102271.19
2023-04-18T05:21:47.132Z,102268.69
2023-04-18T05:24:32.484Z,102265.22
2023-04-18T05:27:18.109Z,102272.00
2023-04-18T05:30:03.596Z,102277.59
2023-04-18T05:32:48.337Z,102279.16
2023-04-18T05:35:33.283Z,102281.19
2023-04-18T05:38:18.427Z,102282.31
2023-04-18T05:41:03.766Z,102278.84
2023-04-18T05:43:58.210Z,102279.78
2023-04-18T05:46:52.227Z,102280.44
2023-04-18T05:49:37.161Z,102287.16
2023-04-18T05:52:22.294Z,102295.97
2023-04-18T05:55:07.768Z,102294.19
2023-04-18T05:57:52.679Z,102292.38
2023-04-18T06:00:37.459Z,102289.34
2023-04-18T06:03:22.974Z,102294.16
2023-04-18T06:06:08.189Z,102303.88
2023-04-18T06:08:54.214Z,102302.91
2023-04-18T06:11:39.620Z,102301.81
2023-04-18T06:14:25.865Z,102314.13
2023-04-18T06:17:12.974Z,102305.22
2023-04-18T06:19:57.863Z,102313.28
2023-04-18T06:22:43.055Z,102314.78
2023-04-18T06:25:28.022Z,102316.63
2023-04-18T06:28:12.827Z,102316.31
2023-04-18T06:30:57.676Z,102315.13
2023-04-18T06:33:42.775Z,102314.03
2023-04-18T06:36:27.764Z,102309.84
2023-04-18T06:39:12.782Z,102317.50
2023-04-18T06:41:58.499Z,102316.06
2023-04-18T06:44:43.641Z,102320.13
2023-04-18T06:47:29.285Z,102317.09
2023-04-18T06:50:14.894Z,102331.03
2023-04-18T06:52:59.719Z,102332.03
2023-04-18T06:55:44.566Z,102326.16
2023-04-18T06:58:30.528Z,102326.28
2023-04-18T07:01:15.978Z,102322.94
2023-04-18T07:04:01.336Z,102329.94
2023-04-18T07:06:46.458Z,102338.59
2023-04-18T07:09:31.850Z,102336.81
2023-04-18T07:12:16.735Z,102336.34
2023-04-18T07:15:01.937Z,102334.22
2023-04-18T07:17:47.281Z,102327.28
2023-04-18T07:20:32.591Z,102328.16
2023-04-18T07:23:18.363Z,102327.56
2023-04-18T07:26:05.205Z,102324.25
2023-04-18T07:28:50.162Z,102328.88
2023-04-18T07:31:35.224Z,102333.31
2023-04-18T07:34:22.300Z,102329.13
2023-04-18T07:37:07.259Z,102336.13
2023-04-18T07:39:52.097Z,102327.75
2023-04-18T07:42:37.309Z,102330.34
2023-04-18T07:45:22.285Z,102326.81
2023-04-18T07:48:07.173Z,102328.66
2023-04-18T07:50:53.196Z,102330.38
2023-04-18T07:53:37.938Z,102330.53
2023-04-18T07:56:22.864Z,102323.91
2023-04-18T07:59:07.667Z,102328.50
2023-04-18T08:01:53.756Z,102326.94
2023-04-18T08:04:39.195Z,102324.41
2023-04-18T08:07:24.267Z,102336.28
2023-04-18T08:10:09.233Z,102330.00
2023-04-18T08:12:54.352Z,102323.28
2023-04-18T08:15:40.513Z,102325.03
2023-04-18T08:18:26.085Z,102323.56
2023-04-18T08:21:11.227Z,102324.69
2023-04-18T08:23:57.198Z,102325.69
2023-04-18T08:26:42.095Z,102323.44
2023-04-18T08:29:27.608Z,102319.22
2023-04-18T08:32:12.285Z,102320.28
2023-04-18T08:34:57.490Z,102331.44
2023-04-18T08:37:43.153Z,102323.50
2023-04-18T08:40:30.112Z,102331.13
2023-04-18T08:43:15.670Z,102327.38
2023-04-18T08:46:00.753Z,102342.84
2023-04-18T08:48:49.530Z,102341.97
2023-04-18T08:51:34.360Z,102337.69
2023-04-18T08:54:22.297Z,102339.38
2023-04-18T08:57:08.837Z,102335.16
2023-04-18T08:59:55.357Z,102344.66
2023-04-18T09:02:44.906Z,102345.47
2023-04-18T09:05:29.909Z,102345.47
2023-04-18T09:08:24.315Z,102337.75
2023-04-18T09:11:21.548Z,102350.00
2023-04-18T09:14:07.733Z,102352.63
2023-04-18T09:16:53.210Z,102350.78
2023-04-18T09:19:46.236Z,102356.91
2023-04-18T09:22:48.273Z,102356.03
2023-04-18T09:25:36.032Z,102358.63
2023-04-18T09:28:26.842Z,102361.31
2023-04-18T09:31:15.317Z,102341.41
2023-04-18T09:34:02.247Z,102350.00
2023-04-18T09:36:47.084Z,102355.28
2023-04-18T09:39:31.951Z,102359.50
2023-04-18T09:42:17.712Z,102350.72
2023-04-18T09:45:08.231Z,102359.47
2023-04-18T09:47:53.759Z,102353.34
2023-04-18T09:50:43.402Z,102350.66
2023-04-18T09:53:30.076Z,102354.28
2023-04-18T09:56:23.464Z,102352.47
2023-04-18T09:59:09.803Z,102356.88
2023-04-18T10:01:57.139Z,102359.50
2023-04-18T10:04:43.583Z,102348.28
2023-04-18T10:07:28.740Z,102358.84
2023-04-18T10:10:14.605Z,102362.28
2023-04-18T10:13:01.472Z,102351.97
2023-04-18T10:15:47.199Z,102354.53
2023-04-18T10:18:32.482Z,102355.47
2023-04-18T10:21:20.719Z,102357.25
2023-04-18T10:24:05.960Z,102358.19
2023-04-18T10:26:50.803Z,102353.69
2023-04-18T10:29:56.526Z,102359.84
2023-04-18T10:32:41.951Z,102355.38
2023-04-18T10:35:27.185Z,102353.75
2023-04-18T10:38:22.367Z,102353.91
2023-04-18T10:41:28.777Z,102357.25
2023-04-18T10:44:17.397Z,102354.72
2023-04-18T10:47:08.662Z,102352.09
2023-04-18T10:49:56.412Z,102366.06
2023-04-18T10:52:41.675Z,102359.09
2023-04-18T10:55:28.850Z,102350.38
2023-04-18T10:58:15.430Z,102349.53
2023-04-18T11:01:03.286Z,102353.03
2023-04-18T11:03:48.629Z,102342.84
2023-04-18T11:06:33.502Z,102336.16
2023-04-18T11:09:18.577Z,102340.50
2023-04-18T11:12:11.230Z,102331.81
2023-04-18T11:14:56.050Z,102328.31
2023-04-18T11:17:41.112Z,102334.41
2023-04-18T11:20:26.828Z,102324.81
2023-04-18T11:23:20.888Z,102325.69
2023-04-18T11:26:07.393Z,102324.81
2023-04-18T11:28:56.877Z,102322.22
2023-04-18T11:31:42.033Z,102324.84
2023-04-18T11:34:30.963Z,102331.66
2023-04-18T11:37:16.482Z,102321.84
2023-04-18T11:40:02.305Z,102326.44
2023-04-18T11:42:47.243Z,102321.22
2023-04-18T11:45:32.512Z,102317.00
2023-04-18T11:48:17.725Z,102320.47
2023-04-18T11:51:05.458Z,102323.94
2023-04-18T11:53:50.592Z,102322.22
2023-04-18T11:56:37.054Z,102322.22
2023-04-18T11:59:22.444Z,102323.06
2023-04-18T12:02:16.387Z,102331.81
2023-04-18T12:05:02.730Z,102324.84
2023-04-18T12:07:48.059Z,102326.59
2023-04-18T12:10:33.301Z,102327.44
2023-04-18T12:13:40.140Z,102322.22
2023-04-18T12:16:28.493Z,102315.94
2023-04-18T12:19:14.537Z,102306.97
2023-04-18T12:22:01.302Z,102315.84
2023-04-18T12:24:46.529Z,102312.44
2023-04-18T12:28:00.236Z,102301.97
2023-04-18T12:30:45.104Z,102308.97
2023-04-18T12:33:30.458Z,102305.50
2023-04-18T12:36:16.015Z,102305.56
2023-04-18T12:39:01.500Z,102307.31
2023-04-18T12:41:49.661Z,102301.06
2023-04-18T12:44:34.924Z,102301.03
2023-04-18T12:47:19.701Z,102302.63
2023-04-18T12:50:05.992Z,102291.22
2023-04-18T12:52:55.651Z,102296.41
2023-04-18T12:55:41.090Z,102301.25
2023-04-18T12:58:25.996Z,102297.84
2023-04-18T13:01:11.021Z,102296.25
2023-04-18T13:04:10.864Z,102299.22
2023-04-18T13:06:58.449Z,102276.88
2023-04-18T13:09:48.582Z,102290.13
2023-04-18T13:12:33.523Z,102286.03
2023-04-18T13:15:18.853Z,102282.53
2023-04-18T13:18:06.084Z,102286.50
2023-04-18T13:20:51.466Z,102283.44
2023-04-18T13:23:36.469Z,102286.38
2023-04-18T13:26:21.291Z,102284.06
2023-04-18T13:29:06.108Z,102283.25
2023-04-18T13:31:51.053Z,102278.94
2023-04-18T13:34:39.684Z,102281.94
2023-04-18T13:37:24.865Z,102274.00
2023-04-18T13:40:10.520Z,102282.19
2023-04-18T13:42:55.821Z,102271.66
2023-04-18T13:45:41.289Z,102273.25
2023-04-18T13:48:27.251Z,102272.03
2023-04-18T13:51:13.340Z,102272.75
2023-04-18T13:54:00.333Z,102282.72
2023-04-18T13:56:45.634Z,102275.09
2023-04-18T13:59:32.026Z,102277.13
2023-04-18T14:02:17.131Z,102276.34
2023-04-18T14:05:02.706Z,102278.00
2023-04-18T14:07:48.547Z,102279.97
2023-04-18T14:10:33.992Z,102278.25
2023-04-18T14:13:19.539Z,102270.47
2023-04-18T14:16:07.068Z,102269.56
2023-04-18T14:18:53.720Z,102263.31
2023-04-18T14:21:38.524Z,102272.81
2023-04-18T14:24:23.481Z,102267.19
2023-04-18T14:27:09.724Z,102270.66
2023-04-18T14:29:54.642Z,102258.38
2023-04-18T14:32:39.409Z,102264.25
2023-04-18T14:35:24.602Z,102260.84
2023-04-18T14:38:10.196Z,102258.47
2023-04-18T14:40:55.165Z,102256.63
2023-04-18T14:43:40.275Z,102258.69
2023-04-18T14:46:27.273Z,102259.91
2023-04-18T14:49:12.222Z,102261.84
2023-04-18T14:51:57.572Z,102259.34
2023-04-18T14:54:43.821Z,102259.63
2023-04-18T14:57:29.987Z,102251.06
2023-04-18T15:00:15.709Z,102250.66
2023-04-18T15:03:00.927Z,102248.66
2023-04-18T15:05:49.358Z,102245.69
2023-04-18T15:08:34.394Z,102248.19
2023-04-18T15:11:20.131Z,102242.22
2023-04-18T15:14:05.278Z,102236.56
2023-04-18T15:16:50.644Z,102237.41
2023-04-18T15:19:35.764Z,102240.09
2023-04-18T15:22:20.612Z,102237.53
2023-04-18T15:25:09.955Z,102229.56
2023-04-18T15:27:54.852Z,102233.06
2023-04-18T15:30:39.840Z,102241.09
2023-04-18T15:33:25.180Z,102228.84
2023-04-18T15:36:09.966Z,102236.78
2023-04-18T15:38:54.959Z,102233.31
2023-04-18T15:41:42.307Z,102231.66
2023-04-18T15:44:28.926Z,102238.63
2023-04-18T15:47:14.847Z,102239.47
2023-04-18T15:49:59.977Z,102237.69
2023-04-18T15:52:46.765Z,102236.13
2023-04-18T15:55:31.957Z,102238.69
2023-04-18T15:58:16.805Z,102242.19
2023-04-18T16:01:03.230Z,102236.22
2023-04-18T16:03:49.332Z,102238.84
2023-04-18T16:06:34.461Z,102235.28
2023-04-18T16:09:20.691Z,102229.97
2023-04-18T16:12:07.081Z,102236.13
2023-04-18T16:14:52.289Z,102235.34
2023-04-18T16:17:37.843Z,102233.59
2023-04-18T16:20:23.183Z,102238.72
2023-04-18T16:23:08.595Z,102250.13
2023-04-18T16:25:55.138Z,102242.25
2023-04-18T16:28:42.272Z,102236.22
2023-04-18T16:31:27.393Z,102240.56
2023-04-18T16:34:12.644Z,102231.84
2023-04-18T16:36:57.920Z,102229.22
2023-04-18T16:39:43.596Z,102231.88
2023-04-18T16:42:28.564Z,102228.44
2023-04-18T16:45:13.982Z,102234.56
2023-04-18T16:48:00.372Z,102227.56
2023-04-18T16:50:48.458Z,102229.31
2023-04-18T16:53:34.755Z,102229.34
2023-04-18T16:56:19.778Z,102229.41
2023-04-18T16:59:04.643Z,102229.41
2023-04-18T17:01:49.493Z,102225.91
2023-04-18T17:04:34.921Z,102235.53
2023-04-18T17:07:20.985Z,102237.34
2023-04-18T17:10:07.298Z,102231.22
2023-04-18T17:12:53.868Z,102242.56
2023-04-18T17:15:39.026Z,102240.81
2023-04-18T17:18:25.424Z,102243.47
2023-04-18T17:21:12.413Z,102236.47
2023-04-18T17:23:59.425Z,102246.06
2023-04-18T17:26:44.761Z,102241.72
2023-04-18T17:29:32.650Z,102245.22
2023-04-18T17:32:17.756Z,102251.34
2023-04-18T17:35:06.399Z,102247.88
2023-04-18T17:37:54.830Z,102248.78
2023-04-18T17:40:40.869Z,102247.03
2023-04-18T17:43:25.653Z,102244.41
2023-04-18T17:46:12.951Z,102245.31
2023-04-18T17:48:57.867Z,102242.69
2023-04-18T17:51:44.325Z,102247.06
2023-04-18T17:54:30.086Z,102250.59
2023-04-18T17:57:14.945Z,102242.75
2023-04-18T17:59:59.742Z,102243.66
2023-04-18T18:02:44.942Z,102247.97
2023-04-18T18:05:31.169Z,102257.63
2023-04-18T18:08:16.628Z,102259.38
2023-04-18T18:11:02.854Z,102260.25
2023-04-18T18:13:51.498Z,102263.78
2023-04-18T18:16:39.899Z,102262.91
2023-04-18T18:19:25.975Z,102271.63
2023-04-18T18:22:10.941Z,102267.25
2023-04-18T18:24:56.877Z,102276.88
2023-04-18T18:27:42.217Z,102271.66
2023-04-18T18:30:32.709Z,102277.75
2023-04-18T18:33:17.965Z,102278.63
2023-04-18T18:36:04.603Z,102280.34
2023-04-18T18:38:50.708Z,102280.38
2023-04-18T18:41:36.129Z,102289.09
2023-04-18T18:44:21.407Z,102292.56
2023-04-18T18:47:08.125Z,102296.06
2023-04-18T18:49:53.313Z,102287.38
2023-04-18T18:52:40.692Z,102303.06
2023-04-18T18:55:27.145Z,102301.31
2023-04-18T18:58:12.261Z,102298.72
2023-04-18T19:00:58.447Z,102302.16
2023-04-18T19:03:45.009Z,102303.06
2023-04-18T19:06:32.807Z,102305.69
2023-04-18T19:09:17.721Z,102308.28
2023-04-18T19:12:06.289Z,102314.38
2023-04-18T19:14:52.646Z,102316.09
2023-04-18T19:17:39.509Z,102311.75
2023-04-18T19:20:25.257Z,102306.53
2023-04-18T19:23:11.741Z,102310.91
2023-04-18T19:25:57.575Z,102318.72
2023-04-18T19:28:45.823Z,102310.91
2023-04-18T19:31:31.035Z,102315.25
2023-04-18T19:34:18.666Z,102319.59
2023-04-18T19:37:04.390Z,102319.59
2023-04-18T19:39:51.927Z,102322.19
2023-04-18T19:42:38.494Z,102325.66
2023-04-18T19:45:25.908Z,102325.69
2023-04-18T19:48:12.292Z,102329.16
2023-04-18T19:51:00.662Z,102339.56
2023-04-18T19:53:48.643Z,102328.28
2023-04-18T19:56:33.418Z,102336.09
2023-04-18T19:59:20.901Z,102331.72
2023-04-18T20:02:10.650Z,102334.34
2023-04-18T20:04:56.694Z,102334.31
2023-04-18T20:07:44.670Z,102339.56
2023-04-18T20:10:31.295Z,102333.44
2023-04-18T20:13:17.316Z,102336.06
2023-04-18T20:16:04.500Z,102345.59
2023-04-18T20:18:49.958Z,102342.97
2023-04-18T20:21:35.777Z,102338.63
2023-04-18T20:24:21.451Z,102337.75
2023-04-18T20:27:06.811Z,102339.47
2023-04-18T20:29:51.804Z,102337.72
2023-04-18T20:32:37.814Z,102342.09
2023-04-18T20:35:22.976Z,102341.19
2023-04-18T20:38:09.704Z,102350.72
2023-04-18T20:40:54.563Z,102337.63
2023-04-18T20:43:41.019Z,102348.09
2023-04-18T20:46:26.284Z,102346.34
2023-04-18T20:49:11.423Z,102349.84
2023-04-18T20:51:56.555Z,102348.88
2023-04-18T20:54:42.715Z,102347.19
2023-04-18T20:57:27.785Z,102349.75
2023-04-18T21:00:16.178Z,102348.84
2023-04-18T21:03:01.143Z,102357.50
2023-04-18T21:05:48.684Z,102359.22
2023-04-18T21:08:35.084Z,102367.06
2023-04-18T21:11:19.848Z,102356.63
2023-04-18T21:14:06.488Z,102360.91
2023-04-18T21:16:51.704Z,102364.41
2023-04-18T21:19:37.149Z,102363.50
2023-04-18T21:22:22.285Z,102366.94
2023-04-18T21:25:07.909Z,102362.53
2023-04-18T21:27:52.598Z,102358.22
2023-04-18T21:30:37.832Z,102361.66
2023-04-18T21:33:24.884Z,102366.88
2023-04-18T21:36:09.796Z,102368.53
2023-04-18T21:38:56.760Z,102369.41
2023-04-18T21:41:42.009Z,102365.06
2023-04-18T21:44:26.954Z,102374.56
2023-04-18T21:47:11.767Z,102358.84
2023-04-18T21:49:56.964Z,102357.97
2023-04-18T21:52:41.757Z,102367.47
2023-04-18T21:55:28.542Z,102364.91
2023-04-18T21:58:14.203Z,102363.13
2023-04-18T22:00:59.528Z,102356.19
2023-04-18T22:03:44.903Z,102358.78
2023-04-18T22:06:33.883Z,102357.78
2023-04-18T22:09:19.328Z,102354.28
2023-04-18T22:12:04.566Z,102356.03
2023-04-18T22:14:49.836Z,102350.72
2023-04-18T22:17:34.904Z,102350.72
2023-04-18T22:20:20.004Z,102354.19
2023-04-18T22:23:06.976Z,102351.47
2023-04-18T22:25:52.128Z,102346.28
2023-04-18T22:28:36.988Z,102341.97
2023-04-18T22:31:22.426Z,102349.69
2023-04-18T22:34:07.424Z,102342.84
2023-04-18T22:36:52.576Z,102346.22
2023-04-18T22:39:38.463Z,102345.38
2023-04-18T22:42:24.259Z,102348.81
2023-04-18T22:45:09.812Z,102351.34
2023-04-18T22:47:54.787Z,102350.44
2023-04-18T22:50:43.073Z,102353.72
2023-04-18T22:53:28.443Z,102341.56
2023-04-18T22:56:13.188Z,102348.44
2023-04-18T22:58:57.999Z,102346.56
2023-04-18T23:01:43.223Z,102356.06
2023-04-18T23:04:30.963Z,102349.97
2023-04-18T23:07:16.583Z,102351.59
2023-04-18T23:10:05.398Z,102355.00
2023-04-18T23:12:50.791Z,102360.72
2023-04-18T23:15:36.209Z,102352.94
2023-04-18T23:18:20.847Z,102357.22
2023-04-18T23:21:05.916Z,102357.03
2023-04-18T23:23:51.328Z,102353.44
2023-04-18T23:26:36.941Z,102350.50
2023-04-18T23:29:21.945Z,102346.97
2023-04-18T23:32:07.201Z,102347.97
2023-04-18T23:34:52.140Z,102344.31
2023-04-18T23:37:37.149Z,102346.78
2023-04-18T23:40:22.178Z,102344.78
2023-04-18T23:43:07.289Z,102339.56
2023-04-18T23:45:52.476Z,102340.97
2023-04-18T23:48:37.405Z,102336.47
2023-04-18T23:51:22.279Z,102339.94
2023-04-18T23:54:07.505Z,102331.03
2023-04-18T23:56:52.708Z,102335.34
2023-04-18T23:59:37.808Z,102324.03
